Time;durP1;ratioP1;P1;durP2;ratioP2;P2;SDS_P1;SDS_P2;PMS_P1;PMS_P2;Temp;Humidity;BMP_temperature;BMP_pressure;BME280_temperature;BME280_humidity;BME280_pressure;Samples;Min_cycle;Max_cycle;Signal;HPM_P1;HPM_P2
2021/12/11 00:00:38;;;;;;;69.30;31.95;;;;;;;0.16;100.00;100541.50;5070775;28;20361;-80
2021/12/11 00:03:26;;;;;;;74.90;32.85;;;;;;;0.11;100.00;100553.38;5070912;28;20103;-80
2021/12/11 00:05:59;;;;;;;67.15;32.55;;;;;;;0.11;100.00;100565.34;5071065;28;20839;-80
2021/12/11 00:08:28;;;;;;;72.78;32.13;;;;;;;0.04;100.00;100561.81;5072542;28;20017;-79
2021/12/11 00:11:04;;;;;;;72.95;32.20;;;;;;;0.03;100.00;100565.19;5071774;28;20020;-79
2021/12/11 00:13:31;;;;;;;79.88;33.30;;;;;;;0.07;100.00;100581.50;5070152;28;20051;-80
2021/12/11 00:15:58;;;;;;;72.88;33.33;;;;;;;-0.04;100.00;100561.69;5070033;28;20361;-79
2021/12/11 00:18:29;;;;;;;80.85;34.25;;;;;;;0.02;100.00;100578.84;5071374;28;20401;-79
2021/12/11 00:21:04;;;;;;;82.20;35.33;;;;;;;-0.02;100.00;100587.34;5070419;28;20486;-80
2021/12/11 00:23:34;;;;;;;86.82;35.42;;;;;;;-0.03;100.00;100591.63;5072093;28;20021;-80
2021/12/11 00:26:00;;;;;;;106.68;38.05;;;;;;;-0.02;100.00;100600.16;5070831;28;20031;-79
2021/12/11 00:28:27;;;;;;;94.38;37.03;;;;;;;-0.01;100.00;100601.88;5071317;28;20024;-80
2021/12/11 00:30:52;;;;;;;94.72;37.40;;;;;;;-0.03;100.00;100603.56;5071173;28;20075;-80
2021/12/11 00:33:25;;;;;;;88.85;35.67;;;;;;;-0.06;100.00;100616.34;5071376;28;20032;-80
2021/12/11 00:35:53;;;;;;;92.68;34.83;;;;;;;-0.09;100.00;100619.72;5070797;28;20024;-79
2021/12/11 00:38:35;;;;;;;85.43;33.92;;;;;;;-0.13;100.00;100627.31;5069518;28;20503;-79
2021/12/11 00:41:03;;;;;;;80.57;33.63;;;;;;;-0.23;100.00;100621.16;5070671;28;20043;-80
2021/12/11 00:43:34;;;;;;;73.00;32.13;;;;;;;-0.26;100.00;100629.69;5070984;28;20058;-79
2021/12/11 00:45:59;;;;;;;73.40;32.20;;;;;;;-0.33;100.00;100626.97;5070765;28;20036;-80
2021/12/11 00:48:27;;;;;;;79.45;31.95;;;;;;;-0.32;100.00;100642.38;5071032;28;20028;-79
2021/12/11 00:51:03;;;;;;;78.80;32.83;;;;;;;-0.39;100.00;100640.56;5071169;28;20044;-80
2021/12/11 00:53:37;;;;;;;85.05;34.60;;;;;;;-0.34;100.00;100649.16;5053644;28;20098;-79
2021/12/11 00:56:07;;;;;;;;;;;;;;;-0.37;100.00;100649.09;5051441;28;20040;-79
2021/12/11 00:58:35;;;;;;;73.72;30.70;;;;;;;-0.47;100.00;100644.66;5051242;28;20348;-80
2021/12/11 01:01:13;;;;;;;75.97;31.33;;;;;;;-0.48;100.00;100659.16;5054314;28;20033;-80
2021/12/11 01:04:06;;;;;;;75.50;31.98;;;;;;;-0.53;100.00;100668.44;5070415;28;20078;-79
2021/12/11 01:06:36;;;;;;;63.53;29.27;;;;;;;-0.58;100.00;100662.41;5062180;28;20065;-79
2021/12/11 01:09:11;;;;;;;71.82;30.23;;;;;;;-0.61;100.00;100676.84;5068966;28;20074;-79
2021/12/11 01:11:53;;;;;;;74.00;31.58;;;;;;;-0.65;100.00;100675.91;5069853;28;20028;-80
2021/12/11 01:14:33;;;;;;;83.15;32.95;;;;;;;-0.68;100.00;100687.78;5071411;28;20027;-79
2021/12/11 01:17:31;;;;;;;67.10;30.92;;;;;;;-0.74;100.00;100686.81;5070374;28;20447;-80
2021/12/11 01:20:00;;;;;;;71.78;31.25;;;;;;;-0.79;100.00;100690.97;5071371;28;20064;-80
2021/12/11 01:22:33;;;;;;;73.90;30.05;;;;;;;-0.79;100.00;100696.09;5070635;28;20043;-80
2021/12/11 01:25:07;;;;;;;66.70;29.23;;;;;;;-0.82;100.00;100696.06;5070451;28;20472;-80
2021/12/11 01:27:36;;;;;;;70.65;30.80;;;;;;;-0.84;100.00;100702.84;5073245;28;20025;-79
2021/12/11 01:30:04;;;;;;;74.72;33.00;;;;;;;-0.87;100.00;100699.34;5073949;28;20025;-80
2021/12/11 01:32:31;;;;;;;72.47;30.77;;;;;;;-0.89;100.00;100722.34;5074049;28;20060;-80
2021/12/11 01:34:58;;;;;;;78.13;30.20;;;;;;;-0.91;100.00;100720.59;5074908;28;20049;-80
2021/12/11 01:37:24;;;;;;;80.05;32.60;;;;;;;-0.98;100.00;100717.91;5072055;28;20025;-79
2021/12/11 01:39:51;;;;;;;72.97;31.75;;;;;;;-0.91;100.00;100731.69;5074465;28;20424;-80
2021/12/11 01:42:28;;;;;;;84.22;31.08;;;;;;;-0.92;100.00;100744.44;5074622;28;20029;-79
2021/12/11 01:44:56;;;;;;;77.60;29.65;;;;;;;-0.91;100.00;100747.06;5073865;28;20029;-79
2021/12/11 01:47:28;;;;;;;72.55;29.52;;;;;;;-0.92;100.00;100749.56;5074390;28;20037;-80
2021/12/11 01:50:01;;;;;;;70.35;30.48;;;;;;;-0.96;100.00;100757.19;5074199;28;20093;-79
2021/12/11 01:52:38;;;;;;;65.47;27.80;;;;;;;-0.94;100.00;100767.47;5073228;28;20033;-79
2021/12/11 01:55:17;;;;;;;75.95;29.98;;;;;;;-0.91;100.00;100775.22;5074964;28;20361;-79
2021/12/11 01:57:47;;;;;;;78.05;29.05;;;;;;;-0.93;100.00;100779.41;5072989;28;20055;-79
2021/12/11 02:00:18;;;;;;;72.85;28.88;;;;;;;-0.89;100.00;100796.56;5073623;28;20032;-79
2021/12/11 02:02:47;;;;;;;79.70;30.70;;;;;;;-0.91;100.00;100792.25;5073800;28;20033;-79
2021/12/11 02:05:18;;;;;;;85.70;31.60;;;;;;;-0.76;100.00;100808.81;5073829;28;20464;-79
2021/12/11 02:07:48;;;;;;;80.70;30.92;;;;;;;-0.69;100.00;100807.22;5074106;28;20036;-79
2021/12/11 02:10:21;;;;;;;91.88;33.13;;;;;;;-0.61;100.00;100807.44;5074555;28;20017;-79
2021/12/11 02:12:47;;;;;;;85.05;31.23;;;;;;;-0.54;100.00;100805.00;5071756;28;20045;-79
2021/12/11 02:15:21;;;;;;;86.80;31.73;;;;;;;-0.51;100.00;100815.31;5074396;28;20043;-79
2021/12/11 02:17:59;;;;;;;87.75;32.55;;;;;;;-0.49;100.00;100812.81;5073907;28;20028;-79
2021/12/11 02:20:31;;;;;;;87.43;32.08;;;;;;;-0.46;100.00;100823.09;5073531;28;20025;-79
2021/12/11 02:22:58;;;;;;;86.72;31.75;;;;;;;-0.43;100.00;100818.03;5073303;28;20020;-79
2021/12/11 02:25:28;;;;;;;81.47;28.65;;;;;;;-0.41;100.00;100824.06;5073314;28;20027;-79
2021/12/11 02:27:59;;;;;;;78.30;29.80;;;;;;;-0.41;100.00;100824.06;5072853;28;20032;-79
2021/12/11 02:30:34;;;;;;;76.43;29.33;;;;;;;-0.38;100.00;100834.38;5074270;28;20023;-79
2021/12/11 02:33:07;;;;;;;84.63;31.20;;;;;;;-0.38;100.00;100843.75;5073729;28;20020;-79
2021/12/11 02:35:42;;;;;;;71.03;29.80;;;;;;;-0.40;100.00;100853.97;5073020;28;20024;-79
2021/12/11 02:38:19;;;;;;;84.72;30.92;;;;;;;-0.42;100.00;100860.78;5073048;28;20044;-79
2021/12/11 02:41:06;;;;;;;73.85;29.75;;;;;;;-0.41;100.00;100866.75;5072588;28;20381;-79
2021/12/11 02:43:42;;;;;;;81.25;30.30;;;;;;;-0.40;100.00;100864.19;5072991;28;20036;-79
2021/12/11 02:46:31;;;;;;;79.72;30.88;;;;;;;-0.39;100.00;100865.97;5073973;28;20024;-79
2021/12/11 02:49:16;;;;;;;87.65;32.17;;;;;;;-0.42;100.00;100860.78;5072090;28;20067;-79
2021/12/11 02:51:48;;;;;;;76.32;30.77;;;;;;;-0.43;100.00;100871.81;5072743;28;20028;-79
2021/12/11 02:54:25;;;;;;;81.70;30.67;;;;;;;-0.46;100.00;100871.75;5072602;28;20477;-79
2021/12/11 02:56:57;;;;;;;70.15;29.35;;;;;;;-0.46;100.00;100876.88;5069618;28;20472;-79
2021/12/11 02:59:26;;;;;;;81.93;32.45;;;;;;;-0.47;100.00;100888.81;5053555;28;20548;-79
2021/12/11 03:02:08;;;;;;;77.90;29.85;;;;;;;-0.48;100.00;100897.34;5057722;28;20029;-79
2021/12/11 03:04:38;;;;;;;78.57;30.42;;;;;;;-0.50;100.00;100899.00;5073303;28;20035;-79
2021/12/11 03:07:08;;;;;;;73.57;29.48;;;;;;;-0.50;100.00;100896.44;5072872;28;20103;-79
2021/12/11 03:09:38;;;;;;;81.32;31.00;;;;;;;-0.50;100.00;100893.00;5052218;28;20464;-79
2021/12/11 03:12:07;;;;;;;83.53;31.58;;;;;;;-0.53;100.00;100898.94;5059539;28;20048;-80
2021/12/11 03:14:32;;;;;;;81.72;33.45;;;;;;;-0.47;100.00;100905.88;5072736;28;20063;-79
2021/12/11 03:16:59;;;;;;;89.82;33.40;;;;;;;-0.43;100.00;100909.38;5072055;28;20060;-79
2021/12/11 03:19:30;;;;;;;88.35;33.72;;;;;;;-0.39;100.00;100911.16;5072676;28;20541;-79
2021/12/11 03:21:57;;;;;;;87.00;33.10;;;;;;;-0.39;100.00;100906.94;5072384;28;20025;-79
2021/12/11 03:24:25;;;;;;;86.10;32.38;;;;;;;-0.29;100.00;100915.69;5057034;28;20033;-79
2021/12/11 03:26:52;;;;;;;82.65;30.02;;;;;;;-0.26;100.00;100923.44;5071509;28;20089;-79
2021/12/11 03:29:17;;;;;;;84.47;31.02;;;;;;;-0.21;100.00;100921.84;5073180;28;20032;-80
2021/12/11 03:31:44;;;;;;;79.75;30.85;;;;;;;-0.17;100.00;100927.88;5071223;28;20079;-80
2021/12/11 03:34:13;;;;;;;85.47;32.72;;;;;;;-0.16;100.00;100921.94;5072221;28;20058;-79
2021/12/11 03:36:40;;;;;;;88.20;31.40;;;;;;;-0.15;100.00;100921.09;5071740;28;20013;-80
2021/12/11 03:39:32;;;;;;;79.68;30.27;;;;;;;-0.09;100.00;100932.34;5072873;28;20033;-79
2021/12/11 03:42:00;;;;;;;83.72;28.65;;;;;;;-0.13;100.00;100917.75;5071424;28;20040;-79
2021/12/11 03:44:32;;;;;;;82.43;29.10;;;;;;;-0.06;100.00;100924.72;5071108;28;20101;-79
2021/12/11 03:47:00;;;;;;;83.93;30.33;;;;;;;-0.03;100.00;100929.06;5072377;28;20393;-79
2021/12/11 03:49:25;;;;;;;87.95;31.27;;;;;;;0.00;100.00;100929.13;5071774;28;20048;-79
2021/12/11 03:51:53;;;;;;;88.22;31.52;;;;;;;0.03;100.00;100938.56;5070974;28;20063;-79
2021/12/11 03:54:25;;;;;;;85.32;31.25;;;;;;;0.05;100.00;100939.47;5072720;28;20384;-80
2021/12/11 03:56:51;;;;;;;84.63;30.88;;;;;;;0.07;100.00;100940.38;5071639;28;20402;-79
2021/12/11 03:59:16;;;;;;;82.75;29.02;;;;;;;0.09;100.00;100938.69;5070588;28;20037;-79
2021/12/11 04:01:49;;;;;;;81.00;30.10;;;;;;;0.12;100.00;100947.31;5071389;28;20021;-79
2021/12/11 04:04:26;;;;;;;81.13;29.55;;;;;;;0.14;100.00;100949.91;5072633;28;20036;-79
2021/12/11 04:06:52;;;;;;;81.93;29.80;;;;;;;0.19;100.00;100956.84;5070087;28;20051;-79
2021/12/11 04:09:19;;;;;;;83.07;30.58;;;;;;;0.20;100.00;100950.91;5071752;28;20082;-80
2021/12/11 04:11:47;;;;;;;87.40;31.60;;;;;;;0.22;100.00;100951.78;5070172;28;20093;-80
2021/12/11 04:14:21;;;;;;;96.55;33.00;;;;;;;0.28;100.00;100957.88;5071282;28;20028;-80
2021/12/11 04:16:48;;;;;;;97.70;33.95;;;;;;;0.30;100.00;100957.09;5071862;28;20048;-80
2021/12/11 04:19:14;;;;;;;90.90;32.63;;;;;;;0.37;100.00;100970.91;5070921;28;20479;-80
2021/12/11 04:21:40;;;;;;;94.43;32.67;;;;;;;0.40;100.00;100970.97;5071096;28;20119;-80
2021/12/11 04:24:07;;;;;;;87.72;33.15;;;;;;;0.40;100.00;100970.97;5072013;28;20031;-80
2021/12/11 04:26:33;;;;;;;91.18;33.92;;;;;;;0.47;100.00;100986.50;5070600;28;20024;-80
2021/12/11 04:28:58;;;;;;;93.35;33.58;;;;;;;0.49;100.00;100980.53;5067056;28;20032;-80
2021/12/11 04:31:27;;;;;;;89.35;33.15;;;;;;;0.52;100.00;100985.72;5070154;28;20032;-80
2021/12/11 04:33:56;;;;;;;100.88;35.90;;;;;;;0.53;100.00;100975.50;5070312;28;20035;-80
2021/12/11 04:36:26;;;;;;;103.68;35.25;;;;;;;0.48;100.00;100974.53;5072120;28;20035;-80
2021/12/11 04:38:55;;;;;;;89.93;34.47;;;;;;;0.57;100.00;100987.53;5067470;28;20016;-80
2021/12/11 04:41:29;;;;;;;104.97;34.17;;;;;;;0.57;100.00;100986.69;5070791;28;20036;-80
2021/12/11 04:43:57;;;;;;;95.95;34.70;;;;;;;0.62;100.00;100990.19;5051866;28;20024;-80
2021/12/11 04:46:22;;;;;;;101.38;34.38;;;;;;;0.64;100.00;100996.22;5059895;28;20017;-80
2021/12/11 04:49:05;;;;;;;96.07;35.50;;;;;;;0.66;100.00;101004.84;5070646;28;20047;-80
2021/12/11 04:51:41;;;;;;;98.22;32.72;;;;;;;0.67;100.00;100999.72;5070781;28;20020;-80
2021/12/11 05:05:10;;;;;;;99.90;34.08;;;;;;;0.78;100.00;101022.16;5075446;28;20508;-80
2021/12/11 05:10:34;;;;;;;102.40;35.92;;;;;;;0.87;100.00;101035.16;5061148;28;20119;-80
2021/12/11 05:13:00;;;;;;;96.05;35.80;;;;;;;0.81;100.00;101033.34;5073644;28;20435;-80
2021/12/11 05:15:31;;;;;;;111.45;35.53;;;;;;;0.88;100.00;101035.22;5074751;28;20036;-80
2021/12/11 05:17:58;;;;;;;101.50;33.95;;;;;;;0.90;100.00;101048.06;5075136;28;20469;-80
2021/12/11 05:20:27;;;;;;;102.65;35.15;;;;;;;0.90;100.00;101045.50;5075067;28;20495;-80
2021/12/11 05:22:53;;;;;;;127.63;36.30;;;;;;;0.89;100.00;101048.91;5073747;28;20123;-80
2021/12/11 05:25:18;;;;;;;107.43;34.95;;;;;;;0.93;100.00;101056.69;5075542;28;20529;-80
2021/12/11 05:27:45;;;;;;;118.45;35.88;;;;;;;0.97;100.00;101056.75;5069740;28;20029;-80
2021/12/11 05:30:17;;;;;;;105.50;36.55;;;;;;;1.00;100.00;101069.63;5074192;28;20059;-80
2021/12/11 05:32:43;;;;;;;100.95;34.38;;;;;;;1.00;100.00;101072.19;5073247;28;20032;-80
2021/12/11 05:35:09;;;;;;;114.53;35.30;;;;;;;1.01;100.00;101068.78;5075037;28;20396;-80
2021/12/11 05:37:35;;;;;;;113.43;36.63;;;;;;;1.02;100.00;101068.84;5073919;28;20025;-80
2021/12/11 05:40:01;;;;;;;103.32;35.03;;;;;;;1.05;100.00;101066.31;5074460;28;20533;-80
2021/12/11 05:42:26;;;;;;;108.30;35.95;;;;;;;1.04;100.00;101077.41;5072960;28;20033;-80
2021/12/11 05:44:52;;;;;;;108.10;35.95;;;;;;;1.03;100.00;101072.25;5073600;28;20029;-80
2021/12/11 05:47:20;;;;;;;105.18;36.08;;;;;;;1.00;100.00;101075.63;5074960;28;20070;-80
2021/12/11 05:49:46;;;;;;;106.50;35.88;;;;;;;0.97;100.00;101090.97;5074173;28;20036;-80
2021/12/11 05:52:12;;;;;;;106.80;35.90;;;;;;;0.92;100.00;101080.63;5073925;28;20162;-80
2021/12/11 05:54:40;;;;;;;104.10;36.28;;;;;;;0.99;100.00;101093.59;5074115;28;20040;-80
2021/12/11 05:57:11;;;;;;;107.15;35.20;;;;;;;1.00;100.00;101091.03;5072757;28;20032;-80
2021/12/11 05:59:38;;;;;;;104.95;35.05;;;;;;;1.06;100.00;101093.72;5073129;28;20033;-80
2021/12/11 06:02:04;;;;;;;101.53;34.58;;;;;;;1.05;100.00;101092.00;5074065;28;20107;-80
2021/12/11 06:04:32;;;;;;;116.07;36.53;;;;;;;1.07;100.00;101089.44;5073289;28;20103;-80
2021/12/11 06:06:59;;;;;;;101.18;35.03;;;;;;;1.02;100.00;101084.25;5073158;28;20029;-80
2021/12/11 06:09:26;;;;;;;95.70;33.58;;;;;;;1.01;100.00;101094.47;5073616;28;20032;-80
2021/12/11 06:11:56;;;;;;;96.47;33.17;;;;;;;0.88;100.00;101085.66;5072270;28;20032;-80
2021/12/11 06:14:22;;;;;;;85.97;33.22;;;;;;;0.88;100.00;101093.34;5074242;28;20435;-80
2021/12/11 06:16:51;;;;;;;111.38;36.55;;;;;;;0.90;100.00;101105.38;5074337;28;20427;-80
2021/12/11 06:19:20;;;;;;;108.05;35.95;;;;;;;0.92;100.00;101108.00;5074120;28;20029;-80
2021/12/11 06:21:45;;;;;;;100.55;35.47;;;;;;;0.90;100.00;101122.50;5073356;28;20032;-80
2021/12/11 06:24:11;;;;;;;101.15;36.33;;;;;;;0.87;100.00;101115.59;5073023;28;20052;-80
2021/12/11 06:26:37;;;;;;;95.43;36.58;;;;;;;0.86;100.00;101128.41;5073126;28;20032;-80
2021/12/11 06:29:03;;;;;;;98.35;34.88;;;;;;;0.84;100.00;101127.50;5072803;28;20046;-80
2021/12/11 06:31:28;;;;;;;100.00;37.13;;;;;;;0.83;100.00;101130.91;5073352;28;20033;-80
2021/12/11 06:33:54;;;;;;;104.07;36.70;;;;;;;0.83;100.00;101128.34;5073000;28;20027;-80
2021/12/11 06:36:21;;;;;;;110.20;35.95;;;;;;;0.89;100.00;101133.59;5073997;28;20082;-80
2021/12/11 06:38:50;;;;;;;118.43;41.05;;;;;;;0.99;100.00;101145.78;5073391;28;20028;-80
2021/12/11 06:41:18;;;;;;;114.30;40.28;;;;;;;1.04;100.00;101135.59;5073049;28;20370;-80
2021/12/11 06:43:44;;;;;;;145.73;42.92;;;;;;;1.08;100.00;101140.84;5067298;28;20116;-80
2021/12/11 06:46:09;;;;;;;157.05;44.80;;;;;;;1.17;100.00;101160.69;5069582;28;20103;-80
2021/12/11 06:48:35;;;;;;;139.10;42.78;;;;;;;1.21;100.00;101156.47;5071767;28;20025;-80
2021/12/11 06:51:01;;;;;;;181.90;46.13;;;;;;;1.25;100.00;101163.44;5073391;28;20032;-80
2021/12/11 06:53:49;;;;;;;167.07;48.28;;;;;;;1.31;100.00;101161.00;5072259;28;20395;-80
2021/12/11 06:56:17;;;;;;;189.98;51.92;;;;;;;1.43;100.00;101171.47;5073452;28;20064;-80
2021/12/11 06:58:43;;;;;;;181.45;50.90;;;;;;;1.46;100.00;101176.69;5072754;28;20064;-80
2021/12/11 07:01:09;;;;;;;193.20;51.42;;;;;;;1.50;100.00;101175.88;5069935;28;20031;-80
2021/12/11 07:03:36;;;;;;;189.50;52.60;;;;;;;1.47;100.00;101170.72;5073381;28;20028;-80
2021/12/11 07:06:02;;;;;;;181.77;52.72;;;;;;;1.55;100.00;101182.00;5072829;28;20531;-80
2021/12/11 07:08:29;;;;;;;205.88;54.80;;;;;;;1.54;100.00;101172.56;5072947;28;20112;-80
2021/12/11 07:10:55;;;;;;;200.32;55.13;;;;;;;1.61;100.00;101178.69;5072770;28;20033;-80
2021/12/11 07:13:21;;;;;;;207.77;54.67;;;;;;;1.61;100.00;101182.13;5072945;28;20060;-80
2021/12/11 07:15:47;;;;;;;202.90;54.55;;;;;;;1.66;100.00;101191.59;5071111;28;20060;-80
2021/12/11 07:18:12;;;;;;;206.50;55.08;;;;;;;1.66;100.00;101189.03;5073320;28;20108;-80
2021/12/11 07:20:38;;;;;;;192.18;53.08;;;;;;;1.70;100.00;101194.28;5072645;28;20431;-80
2021/12/11 07:23:04;;;;;;;194.48;54.42;;;;;;;1.73;100.00;101190.88;5071658;28;20032;-81
2021/12/11 07:25:48;;;;;;;196.25;55.55;;;;;;;1.77;100.00;101205.53;5071407;28;20056;-80
2021/12/11 07:28:15;;;;;;;187.52;55.17;;;;;;;1.80;100.00;101213.31;5073136;28;20086;-80
2021/12/11 07:30:44;;;;;;;186.52;55.03;;;;;;;1.84;100.00;101218.53;5071118;28;20052;-81
2021/12/11 07:33:10;;;;;;;207.18;56.47;;;;;;;1.86;100.00;101222.00;5072380;28;20534;-81
2021/12/11 07:35:38;;;;;;;198.65;55.00;;;;;;;1.93;100.00;101229.78;5070456;28;20032;-80
2021/12/11 07:38:04;;;;;;;177.10;52.70;;;;;;;1.97;100.00;101231.59;5067585;28;20063;-80
2021/12/11 07:40:34;;;;;;;182.48;52.22;;;;;;;1.97;100.00;101235.03;5071214;28;20465;-80
2021/12/11 07:42:59;;;;;;;187.88;52.38;;;;;;;2.01;100.00;101238.53;5069456;28;20366;-80
2021/12/11 07:45:26;;;;;;;183.15;50.25;;;;;;;2.02;100.00;101242.81;5062103;28;20580;-80
2021/12/11 07:47:52;;;;;;;175.85;49.58;;;;;;;2.01;100.00;101234.25;5060882;28;20037;-80
2021/12/11 07:50:18;;;;;;;161.30;48.70;;;;;;;2.05;100.00;101246.31;5058794;28;20025;-80
2021/12/11 07:52:43;;;;;;;138.07;44.10;;;;;;;2.10;100.00;101252.41;5069812;28;20526;-80
2021/12/11 07:55:09;;;;;;;145.50;43.33;;;;;;;2.15;100.00;101254.19;5067270;28;20033;-80
2021/12/11 07:57:36;;;;;;;129.77;42.25;;;;;;;2.19;100.00;101255.97;5051641;28;20052;-80
2021/12/11 08:00:05;;;;;;;146.75;40.25;;;;;;;2.27;100.00;101264.72;5068524;28;20044;-80
2021/12/11 08:02:30;;;;;;;145.98;43.20;;;;;;;2.32;100.00;101269.09;5072331;28;20077;-81
2021/12/11 08:04:55;;;;;;;149.60;42.13;;;;;;;2.36;100.00;101270.00;5071402;28;20115;-81
2021/12/11 08:07:21;;;;;;;148.38;46.67;;;;;;;2.39;100.00;101275.22;5070963;28;20037;-80
2021/12/11 08:09:46;;;;;;;125.57;35.50;;;;;;;2.42;100.00;101264.97;5071093;28;20036;-80
2021/12/11 08:12:12;;;;;;;119.57;35.38;;;;;;;2.43;100.00;101270.97;5071312;28;20047;-81
2021/12/11 08:14:37;;;;;;;116.97;34.42;;;;;;;2.44;100.00;101278.72;5066953;28;20081;-80
2021/12/11 08:17:06;;;;;;;105.53;31.63;;;;;;;2.46;100.00;101283.91;5072329;28;20480;-80
2021/12/11 08:19:32;;;;;;;91.05;29.63;;;;;;;2.45;100.00;101285.63;5071035;28;20028;-80
2021/12/11 08:21:59;;;;;;;84.45;27.67;;;;;;;2.43;100.00;101286.44;5070445;28;20039;-82
2021/12/11 08:24:27;;;;;;;99.15;28.25;;;;;;;2.40;100.00;101297.53;5072344;28;20115;-80
2021/12/11 08:26:54;;;;;;;83.80;24.65;;;;;;;2.33;100.00;101299.13;5070295;28;20439;-80
2021/12/11 08:29:22;;;;;;;94.05;25.35;;;;;;;2.39;100.00;101295.81;5071888;28;20037;-80
2021/12/11 08:31:51;;;;;;;74.63;22.52;;;;;;;2.47;100.00;101312.22;5071465;28;20074;-80
2021/12/11 08:34:16;;;;;;;60.35;20.92;;;;;;;2.54;100.00;101315.75;5070447;28;20096;-81
2021/12/11 08:36:43;;;;;;;81.57;21.23;;;;;;;2.61;100.00;101316.72;5060122;28;20170;-80
2021/12/11 08:39:12;;;;;;;63.35;20.15;;;;;;;2.75;100.00;101330.72;5070493;28;20082;-80
2021/12/11 08:41:39;;;;;;;67.55;19.02;;;;;;;2.80;100.00;101337.66;5054223;28;20032;-81
2021/12/11 08:44:11;;;;;;;64.63;17.13;;;;;;;2.80;100.00;101335.09;5072066;28;20028;-81
2021/12/11 08:46:37;;;;;;;68.55;19.08;;;;;;;2.91;100.00;101337.84;5071038;28;20033;-81
2021/12/11 08:49:08;;;;;;;57.97;16.10;;;;;;;2.95;100.00;101320.72;5071450;28;20108;-81
2021/12/11 08:51:44;;;;;;;62.63;17.15;;;;;;;3.04;100.00;101339.78;5070732;28;20067;-81
2021/12/11 08:54:11;;;;;;;180.93;25.20;;;;;;;3.08;100.00;101344.97;5071040;28;20031;-81
2021/12/11 08:56:40;;;;;;;67.70;14.98;;;;;;;3.11;100.00;101340.72;5071568;28;20095;-81
2021/12/11 08:59:10;;;;;;;50.35;13.90;;;;;;;3.15;100.00;101341.63;5071435;28;20116;-81
2021/12/11 09:02:12;;;;;;;48.67;12.60;;;;;;;3.16;100.00;101348.50;5070682;28;20476;-82
2021/12/11 09:05:10;;;;;;;42.00;11.52;;;;;;;3.26;100.00;101364.13;5070174;28;20037;-81
2021/12/11 09:07:46;;;;;;;38.95;11.52;;;;;;;3.20;100.00;101355.44;5067058;28;20039;-81
2021/12/11 09:10:34;;;;;;;45.15;10.13;;;;;;;3.32;100.00;101375.38;5071948;28;20032;-81
2021/12/11 09:13:28;;;;;;;47.22;10.90;;;;;;;3.35;100.00;101381.44;5066914;28;20131;-81
2021/12/11 09:16:11;;;;;;;38.90;9.35;;;;;;;3.43;100.00;101390.16;5068752;28;20020;-81
2021/12/11 09:19:01;;;;;;;40.67;9.65;;;;;;;3.47;100.00;101399.69;5056909;28;20041;-81
2021/12/11 09:21:34;;;;;;;44.38;10.25;;;;;;;3.58;100.00;101398.97;5067964;28;20031;-81
2021/12/11 09:24:05;;;;;;;38.67;9.80;;;;;;;3.68;100.00;101406.84;5051422;28;20025;-81
2021/12/11 09:26:42;;;;;;;43.72;10.82;;;;;;;3.79;100.00;101414.72;5052293;28;20033;-81
2021/12/11 09:29:16;;;;;;;41.05;10.07;;;;;;;3.86;100.00;101408.81;5050379;28;20025;-81
2021/12/11 09:32:18;;;;;;;38.58;10.13;;;;;;;3.96;100.00;101417.53;5055982;28;20044;-81
2021/12/11 09:35:17;;;;;;;42.42;11.25;;;;;;;4.03;100.00;101423.63;5063123;28;20033;-81
2021/12/11 09:37:45;;;;;;;36.28;11.45;;;;;;;4.15;100.00;101436.66;5069604;28;20110;-81
2021/12/11 09:40:35;;;;;;;33.70;11.30;;;;;;;4.26;100.00;101445.44;5071487;28;20039;-82
2021/12/11 09:43:01;;;;;;;38.30;11.82;;;;;;;4.36;100.00;101447.25;5069639;28;20116;-82
2021/12/11 09:45:31;;;;;;;37.22;11.43;;;;;;;4.42;100.00;101447.34;5063575;28;20040;-81
2021/12/11 09:48:02;;;;;;;37.70;11.02;;;;;;;4.44;100.00;101457.66;5068767;28;20043;-82
2021/12/11 09:50:42;;;;;;;36.00;11.23;;;;;;;4.39;100.00;101452.47;5073807;28;20113;-81
2021/12/11 09:53:07;;;;;;;32.88;9.45;;;;;;;4.45;100.00;101460.28;5069663;28;20153;-85
2021/12/11 09:55:37;;;;;;;32.20;8.30;;;;;;;4.49;100.00;101476.69;5073113;28;20056;-82
2021/12/11 09:58:09;;;;;;;24.00;7.82;;;;;;;4.51;100.00;101474.09;5073115;28;20029;-82
2021/12/11 10:00:43;;;;;;;24.80;8.10;;;;;;;4.53;100.00;101480.16;5071377;28;20036;-82
2021/12/11 10:03:11;;;;;;;27.70;7.60;;;;;;;4.50;100.00;101482.69;5071692;28;20365;-82
2021/12/11 10:05:44;;;;;;;22.00;8.02;;;;;;;4.43;100.00;101474.88;5073563;28;20039;-83
2021/12/11 10:11:01;;;;;;;27.65;7.70;;;;;;;4.46;100.00;101492.13;5064148;28;20028;-82
2021/12/11 10:13:26;;;;;;;22.13;6.75;;;;;;;4.44;100.00;101491.22;5071129;28;20075;-82
2021/12/11 10:15:52;;;;;;;29.50;7.22;;;;;;;4.41;100.00;101491.19;5073927;28;20457;-82
2021/12/11 10:18:19;;;;;;;22.00;6.85;;;;;;;4.40;100.00;101492.91;5073691;28;20354;-82
2021/12/11 10:20:55;;;;;;;22.90;8.02;;;;;;;4.37;100.00;101505.78;5072754;28;20040;-82
2021/12/11 10:23:26;;;;;;;27.00;7.65;;;;;;;4.36;100.00;101510.94;5074685;28;20146;-82
2021/12/11 10:25:55;;;;;;;25.42;8.35;;;;;;;4.31;100.00;101515.16;5073440;28;20025;-82
2021/12/11 10:28:27;;;;;;;24.08;7.50;;;;;;;4.26;100.00;101509.09;5074312;28;20036;-82
2021/12/11 10:31:00;;;;;;;25.65;8.15;;;;;;;4.26;100.00;101520.28;5070286;28;20173;-82
2021/12/11 10:33:29;;;;;;;24.95;8.35;;;;;;;4.25;100.00;101518.56;5070416;28;20115;-82
2021/12/11 10:35:57;;;;;;;24.73;7.97;;;;;;;4.22;100.00;101524.53;5073731;28;20479;-82
2021/12/11 10:38:24;;;;;;;30.60;8.52;;;;;;;4.24;100.00;101527.13;5073169;28;20043;-82
2021/12/11 10:40:53;;;;;;;25.55;7.82;;;;;;;4.19;100.00;101526.22;5072795;28;20032;-82
2021/12/11 10:43:23;;;;;;;32.92;9.52;;;;;;;4.25;100.00;101533.16;5073966;28;20174;-82
2021/12/11 10:45:50;;;;;;;23.17;8.43;;;;;;;4.24;100.00;101537.44;5072850;28;20153;-82
2021/12/11 10:48:20;;;;;;;24.27;8.80;;;;;;;4.26;100.00;101538.34;5073807;28;20540;-81
2021/12/11 10:50:58;;;;;;;24.38;8.50;;;;;;;4.18;100.00;101525.31;5064813;28;20032;-82
2021/12/11 10:53:27;;;;;;;26.15;8.55;;;;;;;4.32;100.00;101550.47;5053322;28;20025;-82
2021/12/11 10:55:54;;;;;;;29.00;9.20;;;;;;;4.43;100.00;101551.47;5066700;28;20028;-82
2021/12/11 10:58:24;;;;;;;34.67;9.88;;;;;;;4.50;100.00;101545.53;5073500;28;20036;-81
2021/12/11 11:00:57;;;;;;;26.33;9.70;;;;;;;4.79;100.00;101558.81;5071391;28;20025;-82
2021/12/11 11:03:24;;;;;;;26.15;8.55;;;;;;;4.91;100.00;101552.94;5071685;28;20099;-82
2021/12/11 11:05:50;;;;;;;26.08;8.80;;;;;;;5.04;100.00;101572.03;5072852;28;20029;-82
2021/12/11 11:08:15;;;;;;;20.85;7.35;;;;;;;5.13;100.00;101575.56;5072727;28;20028;-82
2021/12/11 11:10:50;;;;;;;26.10;6.50;;;;;;;5.17;100.00;101566.13;5072765;28;20067;-82
2021/12/11 11:13:19;;;;;;;19.67;7.15;;;;;;;5.26;100.00;101584.28;5073220;28;20141;-82
2021/12/11 11:15:46;;;;;;;22.48;6.63;;;;;;;5.34;100.00;101585.25;5071203;28;20094;-82
2021/12/11 11:18:15;;;;;;;13.55;6.78;;;;;;;5.35;100.00;101586.97;5073350;28;20044;-82
2021/12/11 11:20:50;;;;;;;17.20;5.75;;;;;;;5.37;100.00;101598.22;5072466;28;20027;-82
2021/12/11 11:23:16;;;;;;;23.88;6.20;;;;;;;5.34;100.00;101595.59;5073051;28;20032;-82
2021/12/11 11:25:45;;;;;;;20.85;6.13;;;;;;;5.38;100.00;101602.53;5072576;28;20035;-82
2021/12/11 11:28:14;;;;;;;18.40;5.75;;;;;;;5.44;100.00;101606.03;5072358;28;20565;-82
2021/12/11 11:30:45;;;;;;;17.20;5.45;;;;;;;5.44;100.00;101601.72;5067214;28;20032;-82
2021/12/11 11:33:11;;;;;;;20.85;4.90;;;;;;;5.49;100.00;101607.78;5053039;28;20021;-81
2021/12/11 11:35:42;;;;;;;15.70;5.03;;;;;;;5.51;100.00;101605.25;5051750;28;20470;-82
2021/12/11 11:38:13;;;;;;;16.65;5.20;;;;;;;5.46;100.00;101606.91;5053080;28;20021;-82